sensor_id;sensor_type;location;lat;lon;timestamp;pressure;altitude;pressure_sealevel;temperature;humidity
32735;BME280;19112;51.076;3.706;2022-07-22T00:00:06;101951.66;;;16.20;75.87
32735;BME280;19112;51.076;3.706;2022-07-22T00:02:33;102081.91;;;16.96;75.55
32735;BME280;19112;51.076;3.706;2022-07-22T00:04:58;102147.38;;;17.30;75.85
32735;BME280;19112;51.076;3.706;2022-07-22T00:07:24;102142.66;;;17.18;76.09
32735;BME280;19112;51.076;3.706;2022-07-22T00:09:50;101825.53;;;15.34;76.24
32735;BME280;19112;51.076;3.706;2022-07-22T00:12:16;102056.97;;;16.59;76.83
32735;BME280;19112;51.076;3.706;2022-07-22T00:14:41;102081.31;;;16.74;76.41
32735;BME280;19112;51.076;3.706;2022-07-22T00:17:07;102155.00;;;17.16;76.58
32735;BME280;19112;51.076;3.706;2022-07-22T00:19:34;101857.75;;;15.49;76.30
32735;BME280;19112;51.076;3.706;2022-07-22T00:22:00;102108.91;;;16.81;76.26
32735;BME280;19112;51.076;3.706;2022-07-22T00:24:26;102089.06;;;16.68;76.60
32735;BME280;19112;51.076;3.706;2022-07-22T00:26:52;101903.13;;;15.61;76.39
32735;BME280;19112;51.076;3.706;2022-07-22T00:29:17;102003.81;;;16.23;76.20
32735;BME280;19112;51.076;3.706;2022-07-22T00:31:43;102014.56;;;16.28;75.97
32735;BME280;19112;51.076;3.706;2022-07-22T00:34:09;102041.34;;;16.37;75.90
32735;BME280;19112;51.076;3.706;2022-07-22T00:36:35;102180.44;;;17.10;75.79
32735;BME280;19112;51.076;3.706;2022-07-22T00:39:01;101976.66;;;16.00;76.03
32735;BME280;19112;51.076;3.706;2022-07-22T00:41:27;101909.19;;;15.57;76.77
32735;BME280;19112;51.076;3.706;2022-07-22T00:44:07;102155.16;;;16.91;77.88
32735;BME280;19112;51.076;3.706;2022-07-22T00:46:35;101953.06;;;15.78;78.00
32735;BME280;19112;51.076;3.706;2022-07-22T00:49:04;101935.97;;;15.66;77.86
32735;BME280;19112;51.076;3.706;2022-07-22T00:51:31;102023.19;;;16.20;77.67
32735;BME280;19112;51.076;3.706;2022-07-22T00:53:58;102061.81;;;16.42;77.47
32735;BME280;19112;51.076;3.706;2022-07-22T00:56:26;102180.88;;;16.93;77.12
32735;BME280;19112;51.076;3.706;2022-07-22T00:58:55;101991.72;;;16.01;77.12
32735;BME280;19112;51.076;3.706;2022-07-22T01:01:21;102150.63;;;16.87;77.60
32735;BME280;19112;51.076;3.706;2022-07-22T01:03:47;102138.25;;;16.87;77.67
32735;BME280;19112;51.076;3.706;2022-07-22T01:06:13;102130.09;;;16.80;77.99
32735;BME280;19112;51.076;3.706;2022-07-22T01:08:39;102130.97;;;16.80;77.73
32735;BME280;19112;51.076;3.706;2022-07-22T01:11:18;102048.28;;;16.33;77.89
32735;BME280;19112;51.076;3.706;2022-07-22T01:13:46;101798.59;;;14.88;78.18
32735;BME280;19112;51.076;3.706;2022-07-22T01:16:14;102062.59;;;16.40;78.55
32735;BME280;19112;51.076;3.706;2022-07-22T01:18:40;101934.13;;;15.65;78.76
32735;BME280;19112;51.076;3.706;2022-07-22T01:21:08;101785.38;;;14.88;78.82
32735;BME280;19112;51.076;3.706;2022-07-22T01:23:34;101814.06;;;15.03;78.80
32735;BME280;19112;51.076;3.706;2022-07-22T01:26:02;102116.72;;;16.76;78.74
32735;BME280;19112;51.076;3.706;2022-07-22T01:28:28;101966.56;;;15.87;78.57
32735;BME280;19112;51.076;3.706;2022-07-22T01:30:54;102115.03;;;16.79;78.57
32735;BME280;19112;51.076;3.706;2022-07-22T01:33:21;101512.91;;;13.35;78.08
32735;BME280;19112;51.076;3.706;2022-07-22T01:35:47;102115.16;;;16.83;78.16
32735;BME280;19112;51.076;3.706;2022-07-22T01:38:14;101995.69;;;16.17;78.09
32735;BME280;19112;51.076;3.706;2022-07-22T01:40:42;101932.81;;;15.80;78.18
32735;BME280;19112;51.076;3.706;2022-07-22T01:43:08;102082.00;;;16.69;78.49
32735;BME280;19112;51.076;3.706;2022-07-22T01:45:34;101816.03;;;15.10;78.34
32735;BME280;19112;51.076;3.706;2022-07-22T01:48:01;102097.25;;;16.76;78.28
32735;BME280;19112;51.076;3.706;2022-07-22T01:50:28;102095.47;;;16.75;78.46
32735;BME280;19112;51.076;3.706;2022-07-22T01:52:54;101499.72;;;13.35;77.97
32735;BME280;19112;51.076;3.706;2022-07-22T01:55:19;102068.31;;;16.54;78.54
32735;BME280;19112;51.076;3.706;2022-07-22T01:57:46;101601.75;;;13.90;78.33
32735;BME280;19112;51.076;3.706;2022-07-22T02:00:12;102050.31;;;16.42;78.63
32735;BME280;19112;51.076;3.706;2022-07-22T02:02:38;101828.53;;;15.16;78.27
32735;BME280;19112;51.076;3.706;2022-07-22T02:05:05;102090.88;;;16.69;78.21
32735;BME280;19112;51.076;3.706;2022-07-22T02:07:32;102018.94;;;16.26;78.06
32735;BME280;19112;51.076;3.706;2022-07-22T02:09:58;101939.84;;;15.79;77.89
32735;BME280;19112;51.076;3.706;2022-07-22T02:12:24;102072.31;;;16.39;77.97
32735;BME280;19112;51.076;3.706;2022-07-22T02:14:50;101854.09;;;15.15;77.97
32735;BME280;19112;51.076;3.706;2022-07-22T02:17:16;102047.09;;;16.22;78.11
32735;BME280;19112;51.076;3.706;2022-07-22T02:19:42;101790.25;;;14.75;77.97
32735;BME280;19112;51.076;3.706;2022-07-22T02:22:08;101988.72;;;15.89;77.59
32735;BME280;19112;51.076;3.706;2022-07-22T02:24:34;101835.84;;;14.96;77.48
32735;BME280;19112;51.076;3.706;2022-07-22T02:27:00;102051.91;;;16.07;77.84
32735;BME280;19112;51.076;3.706;2022-07-22T02:29:27;101858.34;;;15.10;77.60
32735;BME280;19112;51.076;3.706;2022-07-22T02:31:53;101454.59;;;12.73;77.47
32735;BME280;19112;51.076;3.706;2022-07-22T02:34:19;101794.47;;;14.70;77.70
32735;BME280;19112;51.076;3.706;2022-07-22T02:36:45;102110.28;;;16.38;78.08
32735;BME280;19112;51.076;3.706;2022-07-22T02:39:11;102095.06;;;16.31;78.38
32735;BME280;19112;51.076;3.706;2022-07-22T02:41:36;101854.31;;;14.94;78.05
32735;BME280;19112;51.076;3.706;2022-07-22T02:44:02;101797.19;;;14.71;77.58
32735;BME280;19112;51.076;3.706;2022-07-22T02:46:28;101967.47;;;15.60;77.61
32735;BME280;19112;51.076;3.706;2022-07-22T02:48:54;102048.38;;;16.06;77.54
32735;BME280;19112;51.076;3.706;2022-07-22T02:51:21;101775.38;;;14.50;77.71
32735;BME280;19112;51.076;3.706;2022-07-22T02:53:47;101504.53;;;12.96;77.88
32735;BME280;19112;51.076;3.706;2022-07-22T02:56:13;101950.34;;;15.48;77.80
32735;BME280;19112;51.076;3.706;2022-07-22T02:58:39;102111.56;;;16.22;77.59
32735;BME280;19112;51.076;3.706;2022-07-22T03:01:06;101977.25;;;15.61;77.45
32735;BME280;19112;51.076;3.706;2022-07-22T03:03:32;101936.00;;;15.39;77.33
32735;BME280;19112;51.076;3.706;2022-07-22T03:05:58;102084.03;;;16.17;77.35
32735;BME280;19112;51.076;3.706;2022-07-22T03:08:24;101908.88;;;15.18;77.40
32735;BME280;19112;51.076;3.706;2022-07-22T03:10:51;102110.34;;;16.11;77.69
32735;BME280;19112;51.076;3.706;2022-07-22T03:13:17;101780.81;;;14.29;77.80
32735;BME280;19112;51.076;3.706;2022-07-22T03:15:43;101819.31;;;14.48;77.76
32735;BME280;19112;51.076;3.706;2022-07-22T03:18:09;102051.91;;;15.77;77.88
32735;BME280;19112;51.076;3.706;2022-07-22T03:20:35;102080.19;;;15.78;77.81
32735;BME280;19112;51.076;3.706;2022-07-22T03:23:02;101804.75;;;14.33;77.76
32735;BME280;19112;51.076;3.706;2022-07-22T03:25:28;101759.97;;;14.11;77.63
32735;BME280;19112;51.076;3.706;2022-07-22T03:27:56;101925.06;;;15.02;77.64
32735;BME280;19112;51.076;3.706;2022-07-22T03:30:22;101516.81;;;12.70;77.50
32735;BME280;19112;51.076;3.706;2022-07-22T03:32:47;101843.38;;;14.55;77.66
32735;BME280;19112;51.076;3.706;2022-07-22T03:35:14;102088.69;;;15.96;77.73
32735;BME280;19112;51.076;3.706;2022-07-22T03:37:40;101961.69;;;15.16;77.71
32735;BME280;19112;51.076;3.706;2022-07-22T03:40:07;101959.00;;;15.15;77.92
32735;BME280;19112;51.076;3.706;2022-07-22T03:42:33;102053.16;;;15.62;77.84
32735;BME280;19112;51.076;3.706;2022-07-22T03:44:59;101878.84;;;14.62;77.74
32735;BME280;19112;51.076;3.706;2022-07-22T03:47:25;102063.88;;;15.65;77.86
32735;BME280;19112;51.076;3.706;2022-07-22T03:49:51;101861.75;;;14.52;77.94
32735;BME280;19112;51.076;3.706;2022-07-22T03:52:17;101920.38;;;14.66;78.73
32735;BME280;19112;51.076;3.706;2022-07-22T03:54:43;101781.56;;;13.99;79.25
32735;BME280;19112;51.076;3.706;2022-07-22T03:57:10;102012.66;;;15.38;79.01
32735;BME280;19112;51.076;3.706;2022-07-22T03:59:36;101398.88;;;11.88;78.49
32735;BME280;19112;51.076;3.706;2022-07-22T04:02:02;101981.56;;;15.31;78.98
32735;BME280;19112;51.076;3.706;2022-07-22T04:04:28;101766.94;;;14.09;78.97
32735;BME280;19112;51.076;3.706;2022-07-22T04:06:54;101738.44;;;13.99;78.90
32735;BME280;19112;51.076;3.706;2022-07-22T04:09:20;102050.19;;;15.79;78.79
32735;BME280;19112;51.076;3.706;2022-07-22T04:11:46;101790.84;;;14.39;78.66
32735;BME280;19112;51.076;3.706;2022-07-22T04:14:12;101994.81;;;15.59;78.79
32735;BME280;19112;51.076;3.706;2022-07-22T04:16:38;101990.66;;;15.66;78.82
32735;BME280;19112;51.076;3.706;2022-07-22T04:19:05;101989.97;;;15.71;78.58
32735;BME280;19112;51.076;3.706;2022-07-22T04:21:31;101524.50;;;13.15;78.39
32735;BME280;19112;51.076;3.706;2022-07-22T04:23:57;101868.25;;;15.17;78.68
32735;BME280;19112;51.076;3.706;2022-07-22T04:26:22;102049.19;;;16.34;78.83
32735;BME280;19112;51.076;3.706;2022-07-22T04:28:48;101917.47;;;15.68;78.82
32735;BME280;19112;51.076;3.706;2022-07-22T04:31:14;101521.50;;;13.56;78.53
32735;BME280;19112;51.076;3.706;2022-07-22T04:33:40;102085.34;;;16.93;79.04
32735;BME280;19112;51.076;3.706;2022-07-22T04:36:06;102042.72;;;16.86;79.08
32735;BME280;19112;51.076;3.706;2022-07-22T04:38:32;102059.09;;;17.04;78.78
32735;BME280;19112;51.076;3.706;2022-07-22T04:40:58;101802.34;;;15.87;78.66
32735;BME280;19112;51.076;3.706;2022-07-22T04:43:24;101764.84;;;15.70;77.75
32735;BME280;19112;51.076;3.706;2022-07-22T04:45:50;101998.34;;;17.15;78.08
32735;BME280;19112;51.076;3.706;2022-07-22T04:48:17;102079.38;;;17.71;77.72
32735;BME280;19112;51.076;3.706;2022-07-22T04:50:43;102024.72;;;17.43;77.47
32735;BME280;19112;51.076;3.706;2022-07-22T04:53:09;101832.19;;;16.46;76.63
32735;BME280;19112;51.076;3.706;2022-07-22T04:55:35;101982.34;;;17.48;76.88
32735;BME280;19112;51.076;3.706;2022-07-22T04:58:01;101478.22;;;14.70;76.68
32735;BME280;19112;51.076;3.706;2022-07-22T05:00:27;102080.72;;;18.29;76.91
32735;BME280;19112;51.076;3.706;2022-07-22T05:02:53;101822.13;;;17.05;76.60
32735;BME280;19112;51.076;3.706;2022-07-22T05:05:19;101806.25;;;17.10;76.69
32735;BME280;19112;51.076;3.706;2022-07-22T05:07:45;101911.28;;;17.77;75.98
32735;BME280;19112;51.076;3.706;2022-07-22T05:10:11;101941.75;;;17.94;76.02
32735;BME280;19112;51.076;3.706;2022-07-22T05:12:37;101895.44;;;17.82;76.04
32735;BME280;19112;51.076;3.706;2022-07-22T05:15:03;102020.13;;;18.57;75.57
32735;BME280;19112;51.076;3.706;2022-07-22T05:17:29;101995.25;;;18.55;75.82
32735;BME280;19112;51.076;3.706;2022-07-22T05:19:55;101985.56;;;18.58;75.61
32735;BME280;19112;51.076;3.706;2022-07-22T05:22:21;101967.91;;;18.64;75.58
32735;BME280;19112;51.076;3.706;2022-07-22T05:24:47;102050.66;;;19.26;75.45
32735;BME280;19112;51.076;3.706;2022-07-22T05:27:13;102086.53;;;19.46;74.97
32735;BME280;19112;51.076;3.706;2022-07-22T05:29:39;102093.88;;;19.59;75.25
32735;BME280;19112;51.076;3.706;2022-07-22T05:32:05;101811.72;;;18.02;73.21
32735;BME280;19112;51.076;3.706;2022-07-22T05:34:31;102088.31;;;19.47;72.90
32735;BME280;19112;51.076;3.706;2022-07-22T05:36:56;102012.34;;;19.16;73.19
32735;BME280;19112;51.076;3.706;2022-07-22T05:39:22;102085.91;;;19.61;73.62
32735;BME280;19112;51.076;3.706;2022-07-22T05:41:48;101982.75;;;18.96;72.16
32735;BME280;19112;51.076;3.706;2022-07-22T05:44:14;101900.09;;;18.39;72.40
32735;BME280;19112;51.076;3.706;2022-07-22T05:46:40;101614.56;;;16.74;72.09
32735;BME280;19112;51.076;3.706;2022-07-22T05:49:06;102064.19;;;19.38;72.73
32735;BME280;19112;51.076;3.706;2022-07-22T05:51:32;101985.56;;;19.07;72.96
32735;BME280;19112;51.076;3.706;2022-07-22T05:53:59;102066.38;;;19.60;72.30
32735;BME280;19112;51.076;3.706;2022-07-22T05:56:28;101778.31;;;18.18;72.54
32735;BME280;19112;51.076;3.706;2022-07-22T05:58:53;102029.31;;;19.77;72.44
32735;BME280;19112;51.076;3.706;2022-07-22T06:01:22;101964.16;;;19.58;72.60
32735;BME280;19112;51.076;3.706;2022-07-22T06:03:49;102062.50;;;20.01;70.48
32735;BME280;19112;51.076;3.706;2022-07-22T06:06:14;101525.25;;;17.25;69.96
32735;BME280;19112;51.076;3.706;2022-07-22T06:08:40;101863.50;;;19.34;70.08
32735;BME280;19112;51.076;3.706;2022-07-22T06:11:06;101897.72;;;19.68;68.99
32735;BME280;19112;51.076;3.706;2022-07-22T06:13:34;101928.22;;;19.93;68.21
32735;BME280;19112;51.076;3.706;2022-07-22T06:16:00;102013.41;;;20.53;67.35
32735;BME280;19112;51.076;3.706;2022-07-22T06:18:26;101929.31;;;20.08;66.88
32735;BME280;19112;51.076;3.706;2022-07-22T06:20:52;102092.25;;;21.04;66.27
32735;BME280;19112;51.076;3.706;2022-07-22T06:23:18;101636.25;;;18.59;65.87
32735;BME280;19112;51.076;3.706;2022-07-22T06:25:44;102089.75;;;21.23;65.26
32735;BME280;19112;51.076;3.706;2022-07-22T06:28:11;101710.75;;;19.29;64.81
32735;BME280;19112;51.076;3.706;2022-07-22T06:30:37;101947.75;;;20.71;65.01
32735;BME280;19112;51.076;3.706;2022-07-22T06:33:03;102086.41;;;21.45;64.43
32735;BME280;19112;51.076;3.706;2022-07-22T06:35:28;102049.00;;;21.43;64.26
32735;BME280;19112;51.076;3.706;2022-07-22T06:37:54;102030.28;;;21.42;63.76
32735;BME280;19112;51.076;3.706;2022-07-22T06:40:20;102054.31;;;21.40;63.22
32735;BME280;19112;51.076;3.706;2022-07-22T06:42:46;101868.19;;;20.31;62.84
32735;BME280;19112;51.076;3.706;2022-07-22T06:45:12;101772.69;;;19.89;61.86
32735;BME280;19112;51.076;3.706;2022-07-22T06:47:38;101784.34;;;20.00;62.51
32735;BME280;19112;51.076;3.706;2022-07-22T06:50:05;101825.16;;;19.93;61.80
32735;BME280;19112;51.076;3.706;2022-07-22T06:52:32;101921.00;;;20.63;62.54
32735;BME280;19112;51.076;3.706;2022-07-22T06:54:58;101842.41;;;20.32;62.22
32735;BME280;19112;51.076;3.706;2022-07-22T06:57:24;101849.44;;;20.22;60.70
32735;BME280;19112;51.076;3.706;2022-07-22T06:59:49;102061.38;;;21.32;61.10
32735;BME280;19112;51.076;3.706;2022-07-22T07:02:16;101854.53;;;19.99;61.20
32735;BME280;19112;51.076;3.706;2022-07-22T07:04:41;101926.94;;;20.37;60.51
32735;BME280;19112;51.076;3.706;2022-07-22T07:07:08;101915.16;;;20.17;60.70
32735;BME280;19112;51.076;3.706;2022-07-22T07:09:34;101833.94;;;19.83;60.17
32735;BME280;19112;51.076;3.706;2022-07-22T07:12:00;101766.94;;;19.51;60.35
32735;BME280;19112;51.076;3.706;2022-07-22T07:14:26;102037.88;;;20.98;60.01
32735;BME280;19112;51.076;3.706;2022-07-22T07:16:52;101767.69;;;19.41;59.68
32735;BME280;19112;51.076;3.706;2022-07-22T07:19:18;102037.88;;;20.98;59.33
32735;BME280;19112;51.076;3.706;2022-07-22T07:21:45;101984.41;;;20.91;58.93
32735;BME280;19112;51.076;3.706;2022-07-22T07:24:11;102085.53;;;21.46;58.44
32735;BME280;19112;51.076;3.706;2022-07-22T07:26:37;101963.81;;;20.75;56.93
32735;BME280;19112;51.076;3.706;2022-07-22T07:29:03;101945.22;;;20.87;57.28
32735;BME280;19112;51.076;3.706;2022-07-22T07:31:29;102026.75;;;21.49;57.37
32735;BME280;19112;51.076;3.706;2022-07-22T07:33:55;102046.44;;;21.62;56.64
32735;BME280;19112;51.076;3.706;2022-07-22T07:36:22;102009.88;;;21.55;56.11
32735;BME280;19112;51.076;3.706;2022-07-22T07:38:48;101666.44;;;19.34;56.31
32735;BME280;19112;51.076;3.706;2022-07-22T07:41:14;101792.19;;;19.83;56.98
32735;BME280;19112;51.076;3.706;2022-07-22T07:43:40;101842.09;;;20.00;57.41
32735;BME280;19112;51.076;3.706;2022-07-22T07:46:06;101959.25;;;20.63;57.81
32735;BME280;19112;51.076;3.706;2022-07-22T07:48:32;101501.06;;;18.23;58.38
32735;BME280;19112;51.076;3.706;2022-07-22T07:50:58;102015.97;;;21.35;58.12
32735;BME280;19112;51.076;3.706;2022-07-22T07:53:24;101813.03;;;20.24;57.67
32735;BME280;19112;51.076;3.706;2022-07-22T07:55:50;101908.81;;;20.96;56.82
32735;BME280;19112;51.076;3.706;2022-07-22T07:58:16;101755.06;;;20.03;56.99
32735;BME280;19112;51.076;3.706;2022-07-22T08:00:42;101890.13;;;20.96;56.68
32735;BME280;19112;51.076;3.706;2022-07-22T08:03:08;101887.59;;;21.17;56.38
32735;BME280;19112;51.076;3.706;2022-07-22T08:05:34;101891.00;;;20.98;56.36
32735;BME280;19112;51.076;3.706;2022-07-22T08:08:01;101971.47;;;21.40;56.01
32735;BME280;19112;51.076;3.706;2022-07-22T08:10:27;101910.69;;;21.13;56.40
32735;BME280;19112;51.076;3.706;2022-07-22T08:12:53;101936.47;;;21.07;56.06
32735;BME280;19112;51.076;3.706;2022-07-22T08:15:20;101935.47;;;20.89;55.32
32735;BME280;19112;51.076;3.706;2022-07-22T08:17:46;102042.91;;;21.67;55.79
32735;BME280;19112;51.076;3.706;2022-07-22T08:20:12;101895.38;;;20.85;55.73
32735;BME280;19112;51.076;3.706;2022-07-22T08:22:37;101484.16;;;19.00;55.16
32735;BME280;19112;51.076;3.706;2022-07-22T08:25:04;101901.25;;;21.63;54.87
32735;BME280;19112;51.076;3.706;2022-07-22T08:27:30;101752.22;;;21.08;54.52
32735;BME280;19112;51.076;3.706;2022-07-22T08:29:56;101971.13;;;22.67;53.98
32735;BME280;19112;51.076;3.706;2022-07-22T08:32:21;101769.44;;;21.94;53.06
32735;BME280;19112;51.076;3.706;2022-07-22T08:34:47;101849.75;;;22.54;52.26
32735;BME280;19112;51.076;3.706;2022-07-22T08:37:13;101976.50;;;23.26;51.04
32735;BME280;19112;51.076;3.706;2022-07-22T08:39:39;101855.09;;;22.46;51.35
32735;BME280;19112;51.076;3.706;2022-07-22T08:42:05;101875.63;;;22.70;50.73
32735;BME280;19112;51.076;3.706;2022-07-22T08:44:32;101730.25;;;22.12;50.67
32735;BME280;19112;51.076;3.706;2022-07-22T08:47:00;102065.72;;;24.16;49.35
32735;BME280;19112;51.076;3.706;2022-07-22T08:49:26;102034.34;;;24.38;49.32
32735;BME280;19112;51.076;3.706;2022-07-22T08:51:53;101919.16;;;23.89;48.25
32735;BME280;19112;51.076;3.706;2022-07-22T08:54:19;101692.72;;;22.36;47.50
32735;BME280;19112;51.076;3.706;2022-07-22T08:56:50;101961.13;;;24.05;47.51
32735;BME280;19112;51.076;3.706;2022-07-22T08:59:16;102030.88;;;24.05;47.73
32735;BME280;19112;51.076;3.706;2022-07-22T09:02:09;102004.13;;;23.87;48.92
32735;BME280;19112;51.076;3.706;2022-07-22T09:05:03;101950.41;;;24.03;48.98
32735;BME280;19112;51.076;3.706;2022-07-22T09:07:36;101630.31;;;22.30;47.01
32735;BME280;19112;51.076;3.706;2022-07-22T09:10:12;101789.59;;;23.70;47.01
32735;BME280;19112;51.076;3.706;2022-07-22T09:13:00;102032.44;;;24.60;46.81
32735;BME280;19112;51.076;3.706;2022-07-22T09:15:32;101631.16;;;22.45;46.65
32735;BME280;19112;51.076;3.706;2022-07-22T09:17:59;101629.34;;;22.57;46.62
32735;BME280;19112;51.076;3.706;2022-07-22T09:20:26;101887.94;;;23.74;47.33
32735;BME280;19112;51.076;3.706;2022-07-22T09:22:53;102027.91;;;24.72;47.64
32735;BME280;19112;51.076;3.706;2022-07-22T09:25:35;101810.97;;;23.88;47.08
32735;BME280;19112;51.076;3.706;2022-07-22T09:30:39;102028.81;;;24.70;45.75
32735;BME280;19112;51.076;3.706;2022-07-22T09:33:08;101766.50;;;23.38;45.18
32735;BME280;19112;51.076;3.706;2022-07-22T09:35:34;101842.19;;;24.03;45.21
32735;BME280;19112;51.076;3.706;2022-07-22T09:38:04;101931.59;;;24.02;45.56
32735;BME280;19112;51.076;3.706;2022-07-22T09:40:45;101789.75;;;23.41;46.25
32735;BME280;19112;51.076;3.706;2022-07-22T09:43:16;101829.78;;;23.82;46.56
32735;BME280;19112;51.076;3.706;2022-07-22T09:45:56;101616.03;;;22.40;45.92
32735;BME280;19112;51.076;3.706;2022-07-22T09:48:26;101636.31;;;23.07;46.67
32735;BME280;19112;51.076;3.706;2022-07-22T09:50:54;102019.19;;;25.53;45.65
32735;BME280;19112;51.076;3.706;2022-07-22T09:53:25;101897.94;;;24.86;45.18
32735;BME280;19112;51.076;3.706;2022-07-22T09:55:52;101941.75;;;24.92;44.68
32735;BME280;19112;51.076;3.706;2022-07-22T09:58:18;101963.09;;;25.15;44.68
32735;BME280;19112;51.076;3.706;2022-07-22T10:00:45;101884.66;;;24.69;44.48
32735;BME280;19112;51.076;3.706;2022-07-22T10:03:17;101928.63;;;24.57;45.09
32735;BME280;19112;51.076;3.706;2022-07-22T10:05:43;101569.78;;;21.80;46.86
32735;BME280;19112;51.076;3.706;2022-07-22T10:08:09;101770.13;;;23.36;46.92
32735;BME280;19112;51.076;3.706;2022-07-22T10:10:37;101899.13;;;24.49;46.85
32735;BME280;19112;51.076;3.706;2022-07-22T10:13:06;101820.22;;;24.66;45.82
32735;BME280;19112;51.076;3.706;2022-07-22T10:15:34;101699.78;;;24.24;44.49
32735;BME280;19112;51.076;3.706;2022-07-22T10:18:05;101879.97;;;25.72;43.81
32735;BME280;19112;51.076;3.706;2022-07-22T10:20:33;101849.44;;;25.78;43.60
32735;BME280;19112;51.076;3.706;2022-07-22T10:23:02;102013.00;;;26.88;42.83
32735;BME280;19112;51.076;3.706;2022-07-22T10:25:56;101999.25;;;27.08;42.80
32735;BME280;19112;51.076;3.706;2022-07-22T10:28:35;101888.22;;;26.25;42.39
32735;BME280;19112;51.076;3.706;2022-07-22T10:31:22;101920.34;;;25.71;42.97
32735;BME280;19112;51.076;3.706;2022-07-22T10:33:55;101787.16;;;24.59;44.12
32735;BME280;19112;51.076;3.706;2022-07-22T10:36:38;101854.53;;;25.27;44.43
32735;BME280;19112;51.076;3.706;2022-07-22T10:39:08;101967.69;;;25.89;43.59
32735;BME280;19112;51.076;3.706;2022-07-22T10:41:37;101803.50;;;24.31;45.07
32735;BME280;19112;51.076;3.706;2022-07-22T10:44:04;101823.06;;;24.47;45.73
32735;BME280;19112;51.076;3.706;2022-07-22T10:49:21;101530.22;;;22.69;45.73
32735;BME280;19112;51.076;3.706;2022-07-22T10:54:31;101941.44;;;25.32;45.68
32735;BME280;19112;51.076;3.706;2022-07-22T10:56:57;101938.88;;;25.20;45.52
32735;BME280;19112;51.076;3.706;2022-07-22T10:59:24;101899.56;;;25.02;45.76
32735;BME280;19112;51.076;3.706;2022-07-22T11:01:51;101586.31;;;23.03;45.85
32735;BME280;19112;51.076;3.706;2022-07-22T11:04:23;101530.22;;;22.69;45.81
32735;BME280;19112;51.076;3.706;2022-07-22T11:06:53;101745.47;;;24.15;46.04
32735;BME280;19112;51.076;3.706;2022-07-22T11:09:21;101912.47;;;25.55;45.16
32735;BME280;19112;51.076;3.706;2022-07-22T11:11:50;101776.38;;;25.41;45.58
32735;BME280;19112;51.076;3.706;2022-07-22T11:14:34;101886.06;;;25.88;44.02
32735;BME280;19112;51.076;3.706;2022-07-22T11:17:11;101781.09;;;25.23;43.54
32735;BME280;19112;51.076;3.706;2022-07-22T11:19:39;101884.50;;;25.70;43.06
32735;BME280;19112;51.076;3.706;2022-07-22T11:22:07;101942.13;;;26.23;43.44
32735;BME280;19112;51.076;3.706;2022-07-22T11:24:33;101874.88;;;25.52;43.15
32735;BME280;19112;51.076;3.706;2022-07-22T11:27:00;101799.28;;;24.97;43.04
32735;BME280;19112;51.076;3.706;2022-07-22T11:29:37;101738.72;;;24.68;43.83
32735;BME280;19112;51.076;3.706;2022-07-22T11:32:07;101791.84;;;25.25;43.18
32735;BME280;19112;51.076;3.706;2022-07-22T11:34:36;101714.91;;;25.15;43.02
32735;BME280;19112;51.076;3.706;2022-07-22T11:37:02;101853.47;;;26.67;42.61
32735;BME280;19112;51.076;3.706;2022-07-22T11:39:29;101916.41;;;26.64;41.87
32735;BME280;19112;51.076;3.706;2022-07-22T11:41:57;101696.34;;;24.93;42.27
32735;BME280;19112;51.076;3.706;2022-07-22T11:44:25;101599.69;;;24.13;43.41
32735;BME280;19112;51.076;3.706;2022-07-22T11:46:51;101809.84;;;25.18;43.22
32735;BME280;19112;51.076;3.706;2022-07-22T11:49:21;101910.69;;;25.54;43.73
32735;BME280;19112;51.076;3.706;2022-07-22T11:51:47;101853.19;;;25.65;43.99
32735;BME280;19112;51.076;3.706;2022-07-22T11:54:13;101916.88;;;26.30;42.87
32735;BME280;19112;51.076;3.706;2022-07-22T11:56:39;101844.19;;;26.29;42.52
32735;BME280;19112;51.076;3.706;2022-07-22T11:59:06;101920.38;;;26.93;41.26
32735;BME280;19112;51.076;3.706;2022-07-22T12:01:33;101928.44;;;26.94;40.68
32735;BME280;19112;51.076;3.706;2022-07-22T12:04:11;101634.69;;;24.82;41.97
32735;BME280;19112;51.076;3.706;2022-07-22T12:06:39;101877.28;;;26.37;42.16
32735;BME280;19112;51.076;3.706;2022-07-22T12:09:10;101601.03;;;24.55;42.17
32735;BME280;19112;51.076;3.706;2022-07-22T12:11:41;101704.47;;;25.55;42.27
32735;BME280;19112;51.076;3.706;2022-07-22T12:14:12;101876.22;;;26.49;41.89
32735;BME280;19112;51.076;3.706;2022-07-22T12:16:38;101767.94;;;26.27;41.84
32735;BME280;19112;51.076;3.706;2022-07-22T12:19:10;101836.88;;;26.91;41.58
32735;BME280;19112;51.076;3.706;2022-07-22T12:21:50;101732.31;;;26.09;40.54
32735;BME280;19112;51.076;3.706;2022-07-22T12:24:16;101919.88;;;27.22;40.65
32735;BME280;19112;51.076;3.706;2022-07-22T12:26:49;101818.31;;;26.73;40.92
32735;BME280;19112;51.076;3.706;2022-07-22T12:29:24;101864.94;;;26.79;41.34
32735;BME280;19112;51.076;3.706;2022-07-22T12:32:05;101826.22;;;26.83;41.63
32735;BME280;19112;51.076;3.706;2022-07-22T12:34:41;101902.34;;;26.98;40.93
32735;BME280;19112;51.076;3.706;2022-07-22T12:39:38;101834.94;;;26.48;41.78
32735;BME280;19112;51.076;3.706;2022-07-22T12:42:16;101892.00;;;26.72;40.89
32735;BME280;19112;51.076;3.706;2022-07-22T12:44:53;101880.00;;;26.91;41.71
32735;BME280;19112;51.076;3.706;2022-07-22T12:50:36;101856.28;;;27.10;41.10
32735;BME280;19112;51.076;3.706;2022-07-22T12:53:11;101859.34;;;26.90;41.09
32735;BME280;19112;51.076;3.706;2022-07-22T12:55:54;101879.97;;;27.40;42.39
32735;BME280;19112;51.076;3.706;2022-07-22T12:58:25;101781.72;;;27.06;41.23
32735;BME280;19112;51.076;3.706;2022-07-22T13:00:53;101877.22;;;27.85;40.55
32735;BME280;19112;51.076;3.706;2022-07-22T13:03:20;101873.88;;;28.14;41.70
32735;BME280;19112;51.076;3.706;2022-07-22T13:05:48;101672.72;;;26.77;39.08